createdAt,value
2019-04-28T00:00:12.433Z,575.1
2019-04-28T00:01:14.862Z,575.3
2019-04-28T00:02:16.708Z,575.2
2019-04-28T00:03:20.742Z,575.2
2019-04-28T00:04:23.192Z,575.8
2019-04-28T00:05:25.604Z,576
2019-04-28T00:06:28.029Z,576
2019-04-28T00:07:29.945Z,576.1
2019-04-28T00:08:33.850Z,576.3
2019-04-28T00:09:35.985Z,576.2
2019-04-28T00:10:38.125Z,576.1
2019-04-28T00:11:42.695Z,575.6
2019-04-28T00:12:44.287Z,575.8
2019-04-28T00:13:46.435Z,576.2
2019-04-28T00:14:48.586Z,576.2
2019-04-28T00:15:52.738Z,576.2
2019-04-28T00:16:54.610Z,576.1
2019-04-28T00:17:56.753Z,576.7
2019-04-28T00:19:00.852Z,576.9
2019-04-28T00:20:03.463Z,576.4
2019-04-28T00:21:05.620Z,576.6
2019-04-28T00:22:08.052Z,576.7
2019-04-28T00:23:12.124Z,576.6
2019-04-28T00:24:14.552Z,576.9
2019-04-28T00:25:16.704Z,577.6
2019-04-28T00:26:18.852Z,577.7
2019-04-28T00:27:23.024Z,577.9
2019-04-28T00:28:25.453Z,577.8
2019-04-28T00:30:33.112Z,578.2
2019-04-28T00:31:35.285Z,578.3
2019-04-28T00:32:37.709Z,578.3
2019-04-28T00:33:43.827Z,578.2
2019-04-28T00:34:46.252Z,578.5
2019-04-28T00:35:48.392Z,578.2
2019-04-28T00:36:52.311Z,577.5
2019-04-28T00:37:54.456Z,578.1
2019-04-28T00:38:56.869Z,577.6
2019-04-28T00:40:00.990Z,577.9
2019-04-28T00:41:04.376Z,577.8
2019-04-28T00:42:06.528Z,578
2019-04-28T00:43:08.120Z,578.4
2019-04-28T00:44:12.543Z,578.3
2019-04-28T00:45:14.720Z,578.6
2019-04-28T00:46:16.598Z,577.8
2019-04-28T00:47:18.485Z,577.2
2019-04-28T00:48:22.822Z,576.6
2019-04-28T00:49:25.014Z,576.6
2019-04-28T00:50:27.173Z,576.3
2019-04-28T00:51:31.151Z,576.3
2019-04-28T00:52:34.072Z,576.8
2019-04-28T00:53:36.504Z,576.6
2019-04-28T00:54:38.675Z,576
2019-04-28T00:55:43.060Z,575.7
2019-04-28T00:56:45.495Z,575.6
2019-04-28T00:57:47.636Z,575.5
2019-04-28T01:01:03.036Z,574.8
2019-04-28T01:02:04.648Z,575
2019-04-28T01:03:06.808Z,575
2019-04-28T01:04:08.960Z,575.2
2019-04-28T01:05:13.220Z,575.4
2019-04-28T01:06:16.069Z,575.7
2019-04-28T01:07:18.494Z,574.8
2019-04-28T01:08:22.546Z,574.9
2019-04-28T01:09:25.005Z,574.5
2019-04-28T01:10:26.870Z,574.7
2019-04-28T01:11:29.025Z,574.4
2019-04-28T01:12:33.101Z,574.8
2019-04-28T01:13:35.237Z,574.6
2019-04-28T01:14:37.394Z,574.4
2019-04-28T01:15:41.526Z,573.9
2019-04-28T01:16:43.959Z,573.2
2019-04-28T01:17:46.118Z,573.3
2019-04-28T01:18:49.754Z,573.2
2019-04-28T01:19:53.094Z,573.4
2019-04-28T01:20:55.230Z,573.4
2019-04-28T01:21:57.407Z,574
2019-04-28T01:23:01.333Z,573.8
2019-04-28T01:24:03.760Z,573.7
2019-04-28T01:25:06.182Z,573.7
2019-04-28T01:26:09.779Z,574.3
2019-04-28T01:27:12.350Z,573.4
2019-04-28T01:28:14.510Z,574
2019-04-28T01:29:16.651Z,573.6
2019-04-28T01:30:21.218Z,573.3
2019-04-28T01:31:23.651Z,573.4
2019-04-28T01:32:25.817Z,573.7
2019-04-28T01:33:29.985Z,573.7
2019-04-28T01:34:32.407Z,574
2019-04-28T01:35:34.299Z,573.7
2019-04-28T01:36:36.724Z,573.8
2019-04-28T01:37:41.172Z,573.9
2019-04-28T01:38:43.320Z,573.8
2019-04-28T01:39:45.444Z,573.8
2019-04-28T01:40:49.471Z,574.2
2019-04-28T01:41:52.354Z,574.6
2019-04-28T01:42:54.204Z,574
2019-04-28T01:43:56.084Z,574.1
2019-04-28T01:44:58.225Z,574.3
2019-04-28T01:46:01.844Z,573.9
2019-04-28T01:47:03.742Z,573.6
2019-04-28T01:48:06.168Z,573.9
2019-04-28T01:49:10.585Z,573.6
2019-04-28T01:50:13.008Z,573.4
2019-04-28T01:51:15.151Z,572.8
2019-04-28T01:52:16.752Z,573.2
2019-04-28T01:53:21.328Z,573
2019-04-28T01:54:23.481Z,573.5
2019-04-28T01:55:25.634Z,573.4
2019-04-28T01:56:28.046Z,573.3
2019-04-28T01:57:31.345Z,573
2019-04-28T01:58:33.503Z,573.1
2019-04-28T01:59:35.381Z,573
2019-04-28T02:00:37.794Z,573.1
2019-04-28T02:01:41.860Z,573.5
2019-04-28T02:02:43.739Z,573.3
2019-04-28T02:03:45.892Z,573.5
2019-04-28T02:04:49.674Z,573.6
2019-04-28T02:05:52.057Z,573
2019-04-28T02:06:54.470Z,573
2019-04-28T02:07:56.894Z,572.8
2019-04-28T02:09:00.827Z,572.7
2019-04-28T02:10:03.416Z,573.2
2019-04-28T02:11:05.573Z,573.4
2019-04-28T02:12:08.000Z,572.6
2019-04-28T02:13:12.339Z,572.7
2019-04-28T02:14:14.501Z,572.5
2019-04-28T02:15:16.928Z,572.7
2019-04-28T02:16:21.360Z,572.7
2019-04-28T02:17:22.958Z,572.9
2019-04-28T02:18:25.113Z,572.3
2019-04-28T02:19:27.545Z,572.1
2019-04-28T02:20:32.060Z,572.5
2019-04-28T02:21:34.474Z,572.6
2019-04-28T02:22:36.665Z,572.4
2019-04-28T02:23:41.114Z,572.8
2019-04-28T02:24:43.543Z,572.8
2019-04-28T02:25:45.732Z,572.4
2019-04-28T02:26:48.155Z,572.6
2019-04-28T02:27:52.114Z,572.6
2019-04-28T02:28:54.272Z,573.2
2019-04-28T02:29:56.403Z,572.8
2019-04-28T02:31:01.882Z,572.8
2019-04-28T02:32:05.494Z,572.7
2019-04-28T02:33:07.913Z,572.7
2019-04-28T02:35:15.344Z,572.3
2019-04-28T02:36:17.495Z,572.2
2019-04-28T02:38:24.920Z,572.4
2019-04-28T02:39:27.344Z,572.6
2019-04-28T02:41:35.583Z,572.3
2019-04-28T02:42:40.586Z,572.5
2019-04-28T02:43:44.354Z,572.2
2019-04-28T02:44:46.509Z,571.8
2019-04-28T02:46:54.808Z,571.8
2019-04-28T02:47:57.262Z,571.9
2019-04-28T02:50:04.672Z,572.3
2019-04-28T02:51:06.817Z,572.3
2019-04-28T02:53:14.724Z,572.7
2019-04-28T02:54:17.158Z,572.9
2019-04-28T02:56:25.520Z,573.2
2019-04-28T02:57:27.377Z,572.9
2019-04-28T02:59:35.263Z,572.8
2019-04-28T03:00:37.414Z,572.5
2019-04-28T03:02:44.847Z,572.8
2019-04-28T03:03:47.269Z,573.1
2019-04-28T03:05:54.679Z,572.6
2019-04-28T03:06:57.105Z,572.4
2019-04-28T03:09:05.218Z,572.4
2019-04-28T03:10:07.623Z,572.3
2019-04-28T03:12:14.214Z,572.2
2019-04-28T03:13:16.380Z,572.1
2019-04-28T03:15:24.466Z,572.1
2019-04-28T03:16:26.624Z,572
2019-04-28T03:18:35.001Z,572.1
2019-04-28T03:19:37.421Z,571.9
2019-04-28T03:21:45.730Z,572.4
2019-04-28T03:23:54.584Z,572.4
2019-04-28T03:24:56.733Z,572.6
2019-04-28T03:27:05.721Z,572.7
2019-04-28T03:28:07.843Z,572.7
2019-04-28T03:30:15.489Z,572.8
2019-04-28T03:33:32.866Z,572.9
2019-04-28T03:36:45.462Z,573.4
2019-04-28T03:37:47.612Z,572.9
2019-04-28T03:39:55.037Z,572.8
2019-04-28T03:40:57.191Z,572.6
2019-04-28T03:43:05.253Z,572.8
2019-04-28T03:44:06.583Z,572.8
2019-04-28T03:46:14.392Z,573
2019-04-28T03:47:16.813Z,572.9
2019-04-28T03:49:24.911Z,572.9
2019-04-28T03:50:27.347Z,572.9
2019-04-28T03:52:34.681Z,573.1
2019-04-28T03:53:36.824Z,573.1
2019-04-28T03:55:44.720Z,573.5
2019-04-28T03:56:46.880Z,573.4
2019-04-28T03:58:54.963Z,574.2
2019-04-28T03:59:56.850Z,574.2
2019-04-28T04:02:05.451Z,575.1
2019-04-28T04:03:07.354Z,575.1
2019-04-28T04:05:15.462Z,575
2019-04-28T04:06:17.901Z,574.7
2019-04-28T04:08:25.325Z,574.3
2019-04-28T04:09:27.750Z,574.6
2019-04-28T04:11:34.622Z,574.5
2019-04-28T04:12:37.045Z,574.6
2019-04-28T04:14:45.163Z,574.3
2019-04-28T04:16:52.566Z,574.4
2019-04-28T04:17:54.992Z,574.4
2019-04-28T04:18:57.441Z,574.3
2019-04-28T04:21:05.043Z,574.2
2019-04-28T04:22:06.914Z,573.8
2019-04-28T04:24:14.791Z,574
2019-04-28T04:25:16.930Z,574
2019-04-28T04:27:25.037Z,574.1
2019-04-28T04:28:27.180Z,574.3
2019-04-28T04:29:31.896Z,574.1
2019-04-28T04:30:34.035Z,573.9
2019-04-28T04:31:36.171Z,574.3
2019-04-28T04:33:44.484Z,573.9
2019-04-28T04:34:46.912Z,574.3
2019-04-28T04:36:54.742Z,574.7
2019-04-28T04:37:56.885Z,574.9
2019-04-28T04:40:05.261Z,574.8
2019-04-28T04:41:07.136Z,574.8
2019-04-28T04:43:14.287Z,574.8
2019-04-28T04:44:16.712Z,575
2019-04-28T04:46:24.712Z,574.8
2019-04-28T04:47:27.138Z,574.8
2019-04-28T04:49:35.505Z,574.9
2019-04-28T04:50:37.662Z,574.9
2019-04-28T04:52:44.511Z,575.5
2019-04-28T04:53:46.952Z,575.9
2019-04-28T04:54:50.913Z,575.8
2019-04-28T04:55:55.724Z,575.8
2019-04-28T04:56:59.822Z,575.6
2019-04-28T04:58:02.896Z,575.9
2019-04-28T04:59:05.318Z,576.1
2019-04-28T05:00:09.819Z,576.2
2019-04-28T05:01:14.683Z,576.2
2019-04-28T05:03:23.266Z,576.9
2019-04-28T05:04:25.421Z,576.7
2019-04-28T05:05:27.846Z,577
2019-04-28T05:06:31.499Z,577.3
2019-04-28T05:07:33.924Z,577.4
2019-04-28T05:08:36.351Z,577.3
2019-04-28T05:09:40.136Z,577.5
2019-04-28T05:10:42.561Z,577.2
2019-04-28T05:11:44.987Z,577.5
2019-04-28T05:12:47.127Z,577.1
2019-04-28T05:13:51.209Z,577.6
2019-04-28T05:14:52.793Z,577.3
2019-04-28T05:15:55.220Z,577.2
2019-04-28T05:16:57.643Z,577
2019-04-28T05:18:02.086Z,577.3
2019-04-28T05:19:04.500Z,577
2019-04-28T05:20:06.648Z,577.4
2019-04-28T05:21:08.235Z,576.9
2019-04-28T05:22:11.868Z,577.1
2019-04-28T05:23:14.309Z,577.3
2019-04-28T05:26:27.551Z,577.2
2019-04-28T05:27:33.303Z,577.2
2019-04-28T05:29:41.829Z,577.2
2019-04-28T05:30:45.075Z,576.9
2019-04-28T05:31:46.978Z,576.9
2019-04-28T05:33:54.385Z,577.1
2019-04-28T05:34:56.803Z,576.8
2019-04-28T05:37:03.941Z,576.6
2019-04-28T05:38:06.357Z,576.8
2019-04-28T05:39:10.279Z,576.7
2019-04-28T05:40:12.319Z,576.3
2019-04-28T05:41:14.739Z,576.2
2019-04-28T05:42:17.163Z,576.4
2019-04-28T05:43:22.883Z,576.2
2019-04-28T05:44:25.300Z,576.1
2019-04-28T05:45:27.721Z,576.3
2019-04-28T05:46:31.953Z,576.3
2019-04-28T05:47:34.394Z,576.9
2019-04-28T05:48:36.603Z,576.5
2019-04-28T05:49:41.161Z,576.2
2019-04-28T05:50:43.621Z,576.3
2019-04-28T05:51:45.501Z,576.3
2019-04-28T05:52:47.944Z,576.4
2019-04-28T05:54:55.366Z,576.2
2019-04-28T05:55:57.377Z,576.7
2019-04-28T05:57:03.935Z,576.6
2019-04-28T05:58:06.375Z,576.5
2019-04-28T05:59:10.186Z,576.2
2019-04-28T06:00:12.303Z,575.7
2019-04-28T06:01:14.471Z,576.4
2019-04-28T06:02:16.900Z,575.8
2019-04-28T06:03:21.380Z,575.8
2019-04-28T06:04:23.533Z,575.9
2019-04-28T06:05:25.683Z,576.3
2019-04-28T06:06:31.141Z,576.6
2019-04-28T06:07:35.164Z,577.2
2019-04-28T06:08:37.988Z,576.7
2019-04-28T06:09:41.073Z,576.5
2019-04-28T06:10:43.511Z,576.9
2019-04-28T06:11:45.669Z,576.3
2019-04-28T06:12:49.412Z,576.1
2019-04-28T06:14:56.973Z,576.6
2019-04-28T06:16:01.323Z,576.4
2019-04-28T06:18:10.231Z,576.3
2019-04-28T06:19:12.888Z,576.4
2019-04-28T06:20:15.031Z,576.4
2019-04-28T06:21:17.185Z,576.1
2019-04-28T06:22:19.644Z,576.5
2019-04-28T06:23:22.065Z,576
2019-04-28T06:24:24.489Z,575.7
2019-04-28T06:25:26.924Z,576.1
2019-04-28T06:26:29.049Z,575.9
2019-04-28T06:28:35.947Z,576.1
2019-04-28T06:29:38.097Z,576.1
2019-04-28T06:30:39.993Z,575.8
2019-04-28T06:31:42.419Z,576
2019-04-28T06:32:44.891Z,576
2019-04-28T06:33:47.340Z,576.3
2019-04-28T06:34:49.229Z,576.2
2019-04-28T06:35:51.403Z,575.7
2019-04-28T06:36:53.551Z,576.8
2019-04-28T06:37:55.987Z,576
2019-04-28T06:38:57.880Z,576.6
2019-04-28T06:40:00.026Z,576.4
2019-04-28T06:41:02.189Z,576.4
2019-04-28T06:42:04.087Z,575.6
2019-04-28T06:43:06.242Z,576.2
2019-04-28T06:44:08.379Z,576.2
2019-04-28T06:45:10.544Z,576
2019-04-28T06:46:12.684Z,576.3
2019-04-28T06:48:20.499Z,575.8
2019-04-28T06:49:22.920Z,576.2
2019-04-28T06:50:25.343Z,575.9
2019-04-28T06:51:27.473Z,575.6
2019-04-28T06:52:29.914Z,575.8
2019-04-28T06:53:32.065Z,576.3
2019-04-28T06:54:34.209Z,576
2019-04-28T06:55:36.632Z,575.7
2019-04-28T06:56:39.059Z,575.4
2019-04-28T06:57:40.925Z,575.8
2019-04-28T06:58:43.339Z,575.8
2019-04-28T06:59:44.925Z,575.9
2019-04-28T07:00:46.269Z,575.9
2019-04-28T07:01:48.728Z,575.7
2019-04-28T07:02:50.882Z,575.7
2019-04-28T07:03:53.314Z,575.9
2019-04-28T07:06:00.214Z,576.3
2019-04-28T07:07:02.630Z,575.5
2019-04-28T07:08:04.775Z,574.9
2019-04-28T07:09:07.343Z,574.7
2019-04-28T07:10:09.495Z,575.3
2019-04-28T07:11:11.919Z,575.2
2019-04-28T07:12:14.354Z,575.6
2019-04-28T07:13:16.779Z,575.3
2019-04-28T07:14:19.209Z,575.3
2019-04-28T07:15:21.085Z,575.2
2019-04-28T07:16:23.521Z,575.6
2019-04-28T07:17:25.953Z,575.2
2019-04-28T07:18:27.843Z,574.8
2019-04-28T07:19:30.307Z,574.4
2019-04-28T07:20:32.739Z,574.9
2019-04-28T07:21:34.904Z,574.3
2019-04-28T07:22:36.832Z,574.7
2019-04-28T07:23:39.003Z,574.4
2019-04-28T07:24:41.226Z,574.8
2019-04-28T07:25:43.654Z,574.6
2019-04-28T07:26:46.077Z,575.1
2019-04-28T07:27:47.970Z,575.3
2019-04-28T07:28:50.389Z,575.3
2019-04-28T07:29:52.558Z,574.8
2019-04-28T07:30:54.694Z,575.4
2019-04-28T07:31:57.118Z,575.9
2019-04-28T07:32:59.655Z,576.2
2019-04-28T07:35:07.056Z,575.9
2019-04-28T07:36:09.214Z,575.9
2019-04-28T07:37:11.638Z,576
2019-04-28T07:38:14.114Z,575.9
2019-04-28T07:39:16.544Z,575.6
2019-04-28T07:40:18.970Z,576
2019-04-28T07:41:21.404Z,576
2019-04-28T07:42:23.843Z,575.7
2019-04-28T07:43:26.283Z,575.7
2019-04-28T07:44:28.731Z,576
2019-04-28T07:45:31.179Z,575.4
2019-04-28T07:46:33.331Z,576
2019-04-28T07:47:35.462Z,575.5
2019-04-28T07:48:37.630Z,575.6
2019-04-28T07:49:40.074Z,575.4
2019-04-28T07:50:42.532Z,575.6
2019-04-28T07:51:44.672Z,575.2
2019-04-28T07:52:46.829Z,575.5
2019-04-28T07:53:49.263Z,575
2019-04-28T07:54:51.418Z,574.8
2019-04-28T07:55:53.913Z,574.7
2019-04-28T07:56:55.794Z,575
2019-04-28T07:57:57.994Z,575
2019-04-28T07:59:00.407Z,574.9
2019-04-28T08:00:02.853Z,575.2
2019-04-28T08:01:05.015Z,575.1
2019-04-28T08:02:07.445Z,575
2019-04-28T08:03:09.603Z,575.3
2019-04-28T08:04:12.035Z,575
2019-04-28T08:05:14.462Z,574.5
2019-04-28T08:06:16.897Z,574.6
2019-04-28T08:07:19.321Z,574.3
2019-04-28T08:08:21.730Z,574.4
2019-04-28T08:09:24.153Z,574.1
2019-04-28T08:10:26.583Z,573.9
2019-04-28T08:11:28.737Z,573.7
2019-04-28T08:12:31.163Z,574.2
2019-04-28T08:13:33.321Z,574.4
2019-04-28T08:14:35.552Z,574.1
2019-04-28T08:15:37.710Z,574.1
2019-04-28T08:16:39.874Z,574.4
2019-04-28T08:17:42.301Z,573.9
2019-04-28T08:18:44.451Z,574.3
2019-04-28T08:19:46.874Z,574.3
2019-04-28T08:20:49.078Z,574.2
2019-04-28T08:21:51.213Z,574.5
2019-04-28T08:22:53.631Z,574.6
2019-04-28T08:23:55.791Z,574.5
2019-04-28T08:24:58.238Z,575.4
2019-04-28T08:26:00.650Z,574.8
2019-04-28T08:27:02.833Z,575.6
2019-04-28T08:28:05.258Z,575
2019-04-28T08:29:07.690Z,575.4
2019-04-28T08:30:09.843Z,574.9
2019-04-28T08:31:12.267Z,574.3
2019-04-28T08:32:14.687Z,574.7
2019-04-28T08:33:17.112Z,575.1
2019-04-28T08:34:19.539Z,575.5
2019-04-28T08:35:21.690Z,574.9
2019-04-28T08:36:23.860Z,575
2019-04-28T08:37:26.291Z,574.7
2019-04-28T08:38:28.446Z,574.7
2019-04-28T08:39:30.861Z,574.5
2019-04-28T08:40:33.289Z,574.2
2019-04-28T08:41:35.502Z,574.2
2019-04-28T08:42:37.654Z,574.4
2019-04-28T08:43:39.810Z,574
2019-04-28T08:44:41.957Z,574.4
2019-04-28T08:45:44.376Z,573.7
2019-04-28T08:46:46.809Z,574.1
2019-04-28T08:47:49.298Z,574
2019-04-28T08:48:51.721Z,574.2
2019-04-28T08:49:53.890Z,574.1
2019-04-28T08:50:56.362Z,574.4
2019-04-28T08:51:58.287Z,574
2019-04-28T08:53:00.728Z,574.3
2019-04-28T08:54:02.617Z,574.3
2019-04-28T08:55:05.044Z,574.1
2019-04-28T08:56:07.210Z,573.8
2019-04-28T08:57:09.790Z,573.4
2019-04-28T08:58:12.210Z,573.9
2019-04-28T08:59:14.364Z,573.6
2019-04-28T09:00:16.804Z,573.2
2019-04-28T09:01:18.949Z,573.6
2019-04-28T09:02:21.102Z,573.5
2019-04-28T09:03:23.539Z,573.5
2019-04-28T09:04:25.686Z,573.7
2019-04-28T09:05:27.859Z,573.1
2019-04-28T09:06:30.032Z,573.2
2019-04-28T09:07:32.462Z,573.7
2019-04-28T09:08:34.906Z,573.2
2019-04-28T09:09:37.575Z,573.9
2019-04-28T09:10:39.814Z,573.7
2019-04-28T09:11:42.272Z,573.7
2019-04-28T09:12:44.210Z,573.7
2019-04-28T09:13:46.673Z,573.5
2019-04-28T09:14:48.543Z,574
2019-04-28T09:15:50.992Z,574.2
2019-04-28T09:16:53.417Z,573.9
2019-04-28T09:17:55.568Z,574
2019-04-28T09:18:58.003Z,574.4
2019-04-28T09:20:00.425Z,574.6
2019-04-28T09:21:02.858Z,574.9
2019-04-28T09:22:05.071Z,574.8
2019-04-28T09:23:07.487Z,574.9
2019-04-28T09:24:09.068Z,574.8
2019-04-28T09:25:11.203Z,574.8
2019-04-28T09:26:13.355Z,575
2019-04-28T09:27:15.774Z,575.4
2019-04-28T09:28:18.205Z,575.3
2019-04-28T09:29:20.363Z,575.3
2019-04-28T09:30:22.788Z,575.5
2019-04-28T09:31:25.222Z,575.5
2019-04-28T09:32:27.367Z,576.1
2019-04-28T09:33:29.789Z,576.3
2019-04-28T09:34:31.941Z,576.3
2019-04-28T09:35:34.102Z,575.6
2019-04-28T09:36:35.701Z,575.8
2019-04-28T09:37:38.122Z,575.8
2019-04-28T09:38:40.302Z,576
2019-04-28T09:39:42.463Z,576.3
2019-04-28T09:40:44.613Z,576.5
2019-04-28T09:41:47.049Z,576.1
2019-04-28T09:42:49.239Z,577
2019-04-28T09:43:51.394Z,576.7
2019-04-28T09:44:53.543Z,576.7
2019-04-28T09:45:55.987Z,576.5
2019-04-28T09:46:58.410Z,577.1
2019-04-28T09:48:00.837Z,577
2019-04-28T09:49:02.996Z,576.9
2019-04-28T09:50:05.150Z,576.3
2019-04-28T09:51:07.586Z,577
2019-04-28T09:52:09.755Z,576.9
2019-04-28T09:53:11.621Z,577.1
2019-04-28T09:54:14.052Z,576.2
2019-04-28T09:55:16.216Z,577.1
2019-04-28T09:56:18.651Z,576.2
2019-04-28T09:57:21.083Z,576.6
2019-04-28T09:58:23.255Z,577.3
2019-04-28T09:59:25.146Z,576.8
2019-04-28T10:00:27.300Z,576.4
2019-04-28T10:01:29.202Z,576.2
2019-04-28T10:02:31.340Z,576.7
2019-04-28T10:03:33.777Z,576.5
2019-04-28T10:05:40.917Z,575.8
2019-04-28T10:06:43.344Z,576.2
2019-04-28T10:07:45.499Z,575.9
2019-04-28T10:08:47.945Z,576.1
2019-04-28T10:09:50.377Z,576.3
2019-04-28T10:10:52.251Z,576.8
2019-04-28T10:11:53.843Z,576.8
2019-04-28T10:12:56.022Z,576.6
2019-04-28T10:13:59.014Z,576.4
2019-04-28T10:15:01.177Z,576.8
2019-04-28T10:16:03.614Z,576.1
2019-04-28T10:17:05.785Z,576.9
2019-04-28T10:18:07.955Z,577.4
2019-04-28T10:19:10.372Z,576.8
2019-04-28T10:20:12.258Z,577.1
2019-04-28T10:21:14.675Z,577.1
2019-04-28T10:22:17.108Z,576.7
2019-04-28T10:23:19.023Z,576.2
2019-04-28T10:24:21.454Z,576.6
2019-04-28T10:25:23.602Z,576.5
2019-04-28T10:26:25.767Z,576.9
2019-04-28T10:27:28.208Z,576.8
2019-04-28T10:28:30.620Z,577.1
2019-04-28T10:29:34.713Z,577.4
2019-04-28T10:30:37.149Z,577.4
2019-04-28T10:31:38.753Z,578.4
2019-04-28T10:32:40.903Z,578.5
2019-04-28T10:33:42.765Z,578.8
2019-04-28T10:35:49.935Z,578.8
2019-04-28T10:36:51.819Z,578.7
2019-04-28T10:37:53.955Z,578.7
2019-04-28T10:38:56.379Z,578.7
2019-04-28T10:39:58.534Z,579.2
2019-04-28T10:41:00.696Z,579.3
2019-04-28T10:42:03.124Z,579.5
2019-04-28T10:43:05.268Z,579.8
2019-04-28T10:45:12.691Z,580.2
2019-04-28T10:46:15.123Z,580.2
2019-04-28T10:47:17.296Z,580.4
2019-04-28T10:48:19.732Z,580.3
2019-04-28T10:49:22.166Z,580.5
2019-04-28T10:50:24.601Z,580.2
2019-04-28T10:51:26.750Z,580.4
2019-04-28T10:52:28.892Z,580.2
2019-04-28T10:53:31.515Z,580.6
2019-04-28T10:54:33.964Z,580.9
2019-04-28T10:55:36.393Z,581
2019-04-28T10:56:38.543Z,580.9
2019-04-28T10:57:40.753Z,581.3
2019-04-28T10:58:42.624Z,581.1
2019-04-28T10:59:45.045Z,580.8
2019-04-28T11:00:47.212Z,580.8
2019-04-28T11:01:49.114Z,581.1
2019-04-28T11:02:51.279Z,581.3
2019-04-28T11:03:53.452Z,581.5
2019-04-28T11:06:01.555Z,581.4
2019-04-28T11:07:03.750Z,581
2019-04-28T11:08:06.185Z,581.8
2019-04-28T11:09:08.619Z,581.2
2019-04-28T11:10:11.041Z,581.6
2019-04-28T11:11:13.461Z,581.2
2019-04-28T11:12:15.895Z,581.3
2019-04-28T11:13:18.334Z,581.6
2019-04-28T11:14:20.198Z,581.5
2019-04-28T11:15:22.094Z,582
2019-04-28T11:16:24.532Z,581.3
2019-04-28T11:17:26.960Z,581.6
2019-04-28T11:18:29.116Z,581.6
2019-04-28T11:19:31.532Z,581.5
2019-04-28T11:20:33.983Z,581.2
2019-04-28T11:21:35.841Z,581
2019-04-28T11:22:38.012Z,580.9
2019-04-28T11:23:40.435Z,580.9
2019-04-28T11:24:42.577Z,581
2019-04-28T11:25:45.032Z,580.4
2019-04-28T11:26:46.632Z,581
2019-04-28T11:27:49.076Z,581
2019-04-28T11:28:51.226Z,580.8
2019-04-28T11:29:53.693Z,580.8
2019-04-28T11:30:55.852Z,580.5
2019-04-28T11:31:57.994Z,581
2019-04-28T11:33:00.453Z,580.9
2019-04-28T11:34:02.601Z,580.8
2019-04-28T11:35:04.729Z,580.7
2019-04-28T11:36:07.158Z,580.2
2019-04-28T11:37:09.294Z,580.5
2019-04-28T11:38:11.712Z,581.1
2019-04-28T11:39:13.853Z,580.7
2019-04-28T11:40:16.289Z,580.4
2019-04-28T11:41:18.719Z,580.7
2019-04-28T11:42:21.151Z,580.4
2019-04-28T11:43:23.594Z,580.6
2019-04-28T11:44:26.034Z,580.6
2019-04-28T11:45:27.893Z,580.8
2019-04-28T11:46:30.329Z,580.6
2019-04-28T11:47:32.233Z,580.9
2019-04-28T11:48:34.665Z,581.3
2019-04-28T11:49:36.815Z,581
2019-04-28T11:50:39.245Z,581.3
2019-04-28T11:51:41.407Z,581.3
2019-04-28T11:52:43.828Z,581.1
2019-04-28T11:53:46.263Z,581.6
2019-04-28T11:54:48.722Z,581.5
2019-04-28T11:55:50.858Z,581.2
2019-04-28T11:56:53.034Z,582
2019-04-28T11:57:54.917Z,581.8
2019-04-28T11:58:57.099Z,581.6
2019-04-28T11:59:59.545Z,581.6
2019-04-28T12:01:01.976Z,581.6
2019-04-28T12:02:03.880Z,581.8
2019-04-28T12:03:06.376Z,581.9
2019-04-28T12:04:07.967Z,581.7
2019-04-28T12:05:09.872Z,581.7
2019-04-28T12:06:12.022Z,581.4
2019-04-28T12:07:14.189Z,581.8
2019-04-28T12:08:16.624Z,582
2019-04-28T12:09:18.771Z,582.3
2019-04-28T12:10:21.192Z,582.6
2019-04-28T12:11:23.617Z,582.3
2019-04-28T12:12:25.773Z,582.7
2019-04-28T12:13:27.926Z,582.8
2019-04-28T12:14:30.082Z,582.4
2019-04-28T12:15:32.506Z,582.5
2019-04-28T12:16:34.640Z,582.6
2019-04-28T12:17:37.183Z,582.5
2019-04-28T12:18:39.620Z,582.4
2019-04-28T12:19:41.510Z,582.2
2019-04-28T12:20:43.678Z,582.3
2019-04-28T12:21:45.553Z,582.6
2019-04-28T12:22:47.715Z,582.7
2019-04-28T12:23:49.885Z,582.7
2019-04-28T12:24:52.313Z,582.4
2019-04-28T12:25:54.742Z,582.5
2019-04-28T12:26:56.932Z,582.6
2019-04-28T12:27:59.778Z,582.3
2019-04-28T12:29:02.894Z,582.3
2019-04-28T12:30:05.335Z,582.4
2019-04-28T12:31:07.495Z,582.2
2019-04-28T12:32:09.096Z,582.5
2019-04-28T12:33:11.260Z,582.4
2019-04-28T12:34:13.730Z,582.7
2019-04-28T12:36:22.604Z,582.7
2019-04-28T12:37:25.038Z,582.7
2019-04-28T12:38:27.636Z,582.7
2019-04-28T12:39:30.254Z,583
2019-04-28T12:40:32.428Z,583
2019-04-28T12:41:34.782Z,583
2019-04-28T12:42:37.396Z,583.2
2019-04-28T12:43:39.548Z,582.6
2019-04-28T12:44:41.985Z,583
2019-04-28T12:45:44.414Z,582.6
2019-04-28T12:46:46.840Z,582.8
2019-04-28T12:47:49.265Z,582.9
2019-04-28T12:48:51.426Z,583
2019-04-28T12:49:53.853Z,583.1
2019-04-28T12:50:56.012Z,582.8
2019-04-28T12:51:58.449Z,583.1
2019-04-28T12:53:00.880Z,583.2
2019-04-28T12:54:03.329Z,583.3
2019-04-28T12:55:05.511Z,583
2019-04-28T12:56:07.972Z,583.5
2019-04-28T12:57:10.409Z,583.3
2019-04-28T12:58:12.301Z,583.5
2019-04-28T12:59:14.734Z,583.3
2019-04-28T13:00:16.900Z,583.4
2019-04-28T13:01:19.067Z,583.4
2019-04-28T13:02:21.489Z,583.7
2019-04-28T13:03:23.619Z,583.3
2019-04-28T13:04:26.050Z,583.6
2019-04-28T13:05:28.483Z,583.5
2019-04-28T13:06:30.626Z,583.6
2019-04-28T13:07:32.489Z,584
2019-04-28T13:08:34.651Z,583.7
2019-04-28T13:09:37.084Z,583.7
2019-04-28T13:10:39.239Z,584.2
2019-04-28T13:11:41.398Z,584.6
2019-04-28T13:12:43.835Z,584.2
2019-04-28T13:14:50.686Z,584.2
2019-04-28T13:15:52.855Z,584.8
2019-04-28T13:16:55.301Z,584.7
2019-04-28T13:17:57.464Z,584.4
2019-04-28T13:18:59.334Z,584.8
2019-04-28T13:20:01.468Z,584.7
2019-04-28T13:21:03.632Z,584.7
2019-04-28T13:22:07.055Z,585
2019-04-28T13:23:08.689Z,585
2019-04-28T13:24:11.141Z,584.9
2019-04-28T13:25:13.016Z,584.5
2019-04-28T13:26:15.272Z,585
2019-04-28T13:27:17.746Z,585.1
2019-04-28T13:28:20.212Z,585.4
2019-04-28T13:29:22.644Z,585.2
2019-04-28T13:30:24.832Z,585.2
2019-04-28T13:31:27.265Z,585.7
2019-04-28T13:32:29.438Z,585.6
2019-04-28T13:33:31.588Z,585.5
2019-04-28T13:34:33.558Z,585.3
2019-04-28T13:35:35.445Z,585.6
2019-04-28T13:36:37.645Z,585.3
2019-04-28T13:37:40.223Z,585.9
2019-04-28T13:38:42.416Z,586.3
2019-04-28T13:39:44.921Z,586
2019-04-28T13:40:47.086Z,586.5
2019-04-28T13:41:49.514Z,586.1
2019-04-28T13:42:51.422Z,586
2019-04-28T13:43:53.643Z,586
2019-04-28T13:44:55.805Z,586.4
2019-04-28T13:45:57.955Z,586.2
2019-04-28T13:47:00.386Z,586.2
2019-04-28T13:48:02.622Z,586.5
2019-04-28T13:49:04.802Z,586.6
2019-04-28T13:50:06.692Z,586.5
2019-04-28T13:51:09.123Z,586.8
2019-04-28T13:52:11.553Z,586.4
2019-04-28T13:53:14.043Z,587.1
2019-04-28T13:54:16.251Z,586.7
2019-04-28T13:55:18.423Z,586.6
2019-04-28T13:56:20.888Z,586.7
2019-04-28T13:57:23.331Z,586.6
2019-04-28T13:58:25.481Z,586.7
2019-04-28T13:59:27.657Z,586.7
2019-04-28T14:00:30.106Z,586.3
2019-04-28T14:01:32.551Z,586.5
2019-04-28T14:02:34.997Z,586.4
2019-04-28T14:03:36.964Z,586.3
2019-04-28T14:04:39.125Z,586.4
2019-04-28T14:05:41.260Z,586.5
2019-04-28T14:06:43.704Z,586.6
2019-04-28T14:07:45.844Z,586.5
2019-04-28T14:08:47.984Z,586.3
2019-04-28T14:09:50.134Z,586.7
2019-04-28T14:10:52.003Z,586.8
2019-04-28T14:11:54.506Z,587.3
2019-04-28T14:12:56.976Z,587.3
2019-04-28T14:13:59.464Z,587.5
2019-04-28T14:15:01.421Z,587.3
2019-04-28T14:16:03.916Z,587.2
2019-04-28T14:17:06.090Z,587.7
2019-04-28T14:18:08.728Z,587.2
2019-04-28T14:19:11.175Z,587.4
2019-04-28T14:20:13.347Z,587.5
2019-04-28T14:21:15.783Z,587.3
2019-04-28T14:22:18.243Z,587.6
2019-04-28T14:23:20.756Z,587.6
2019-04-28T14:24:22.941Z,587.9
2019-04-28T14:25:25.419Z,587.9
2019-04-28T14:26:27.883Z,587.4
2019-04-28T14:27:30.223Z,587.7
2019-04-28T14:28:32.643Z,587.7
2019-04-28T14:29:34.620Z,587.4
2019-04-28T14:30:37.145Z,588
2019-04-28T14:31:39.371Z,587.8
2019-04-28T14:32:41.943Z,587.6
2019-04-28T14:33:44.459Z,587.8
2019-04-28T14:34:46.871Z,587.5
2019-04-28T14:35:49.070Z,587.5
2019-04-28T14:36:51.456Z,588
2019-04-28T14:37:54.046Z,587.2
2019-04-28T14:38:56.466Z,587.2
2019-04-28T14:39:59.106Z,587.3
2019-04-28T14:41:01.601Z,587.1
2019-04-28T14:42:04.140Z,587.1